עמוד ראשי
METAR-TAF:

METAR-TAF

שדות תעופה :

Norman Wells, הטריטוריות הצפון-מערביות, קנדה

קו רוחב: 65-17N, קו אורך: 126-48W, גובה: 67מטר

תצפית מזג אוויר נוכחית

הדו"ח נערך לפני 1 שעות ו 10דקות, בשעה 19:00 UTC
רוח 4קשר מכיוון דרום-מערב, משתנה בין דרום-מערב ו מערב
טמפרטורת 17 צלסיוס
לחות 52%
לחץ 1013 hPa
ראות: 40.2קילומטר
עננים בינוניים בגובה 7100רגל
עננים בינוניים בגובה 25000רגל

METAR: CYVQ 171900Z 23004KT 220V280 25SM BKN071 BKN250 17/07 A2990 RMK AC7CI1 CI TR SLP131 DENSITY ALT 500FT

זמן: 14:10 (20:10 UTC)

תחזית

הדו"ח נערך לפני 2 שעות ו 27דקות, בשעה 17:43 UTC
תחזית בתוקף מ 17 ב 18 UTC עד 18 ב 06 UTC
רוח 3קשר עם כיוונים משתנים
ראות: 10קילומטר
מעט עננים בגובה 6000רגל
עננים בינוניים בגובה 10000רגל
מ 17 ב 2200UTC
רוח 8קשר מכיוון מערב
ראות: 10קילומטר
עננים פזורים בגובה 8000רגל
עננים בינוניים בגובה 14000רגל
עננים בינוניים בגובה 22000רגל

TAF: CYVQ 171743Z 1718/1806 VRB03KT P6SM FEW060 BKN100 FM172200 28008KT P6SM SCT080 BKN140 BKN220 RMK NXT FCST BY 180000Z

תצפיות ותחזיות מזג אוויר לגבי יותר מ- 4,000 שדות תעופה ברחבי העולם. דוחות METAR ו- TAF.

התחנות הזמינות מסומנות בנקודות צהובות ואדומות על גבי המפה.

העבר את העכבר לנקודה הצבעונית על מנת לראות את שם התחנה.

לאחר מכן, לחץ כדי לראות את תוכן ואת תחזיות מזג האוויר.

כדי לשנות את המפה: לחץ על הכפתורים הירוקים עם הפלוס השחור כדי להתקרב; על הכפתור הירוק עם המקף כדי להתרחק; או בחיצים הירוקים למפות סמוכות.


METAR-TAF: